sensor_id;sensor_type;location;lat;lon;timestamp;pressure;altitude;pressure_sealevel;temperature;humidity
43934;BME280;59081;42.706;23.306;2022-08-07T00:00:20;94927.00;;;24.12;46.18
43934;BME280;59081;42.706;23.306;2022-08-07T00:02:46;94945.28;;;24.24;46.50
43934;BME280;59081;42.706;23.306;2022-08-07T00:05:12;94910.97;;;24.07;46.24
43934;BME280;59081;42.706;23.306;2022-08-07T00:07:37;94877.75;;;23.86;46.58
43934;BME280;59081;42.706;23.306;2022-08-07T00:10:03;94915.28;;;24.08;46.72
43934;BME280;59081;42.706;23.306;2022-08-07T00:12:29;94985.81;;;24.53;46.80
43934;BME280;59081;42.706;23.306;2022-08-07T00:14:56;94855.34;;;23.38;47.88
43934;BME280;59081;42.706;23.306;2022-08-07T00:17:22;94989.13;;;24.14;48.06
43934;BME280;59081;42.706;23.306;2022-08-07T00:19:47;94986.19;;;24.06;48.12
43934;BME280;59081;42.706;23.306;2022-08-07T00:22:12;94894.59;;;23.43;48.34
43934;BME280;59081;42.706;23.306;2022-08-07T00:24:38;94946.38;;;23.78;48.03
43934;BME280;59081;42.706;23.306;2022-08-07T00:27:03;94941.22;;;23.82;47.68
43934;BME280;59081;42.706;23.306;2022-08-07T00:29:29;94918.34;;;23.72;47.56
43934;BME280;59081;42.706;23.306;2022-08-07T00:31:55;95009.16;;;24.29;47.92
43934;BME280;59081;42.706;23.306;2022-08-07T00:34:25;94907.44;;;23.63;48.15
43934;BME280;59081;42.706;23.306;2022-08-07T00:36:50;94929.59;;;23.72;48.89
43934;BME280;59081;42.706;23.306;2022-08-07T00:39:16;94964.78;;;23.98;48.86
43934;BME280;59081;42.706;23.306;2022-08-07T00:41:55;95007.94;;;24.24;49.13
43934;BME280;59081;42.706;23.306;2022-08-07T00:44:22;94931.84;;;23.74;48.67
43934;BME280;59081;42.706;23.306;2022-08-07T00:46:47;94880.09;;;23.39;49.20
43934;BME280;59081;42.706;23.306;2022-08-07T00:49:13;94983.81;;;24.10;49.28
43934;BME280;59081;42.706;23.306;2022-08-07T00:51:38;94949.06;;;23.89;49.25
43934;BME280;59081;42.706;23.306;2022-08-07T00:54:04;94824.28;;;23.06;49.04
43934;BME280;59081;42.706;23.306;2022-08-07T00:56:30;94965.72;;;24.06;48.86
43934;BME280;59081;42.706;23.306;2022-08-07T00:58:56;94948.59;;;23.85;49.01
43934;BME280;59081;42.706;23.306;2022-08-07T01:01:22;94914.72;;;23.53;48.81
43934;BME280;59081;42.706;23.306;2022-08-07T01:03:49;95002.06;;;24.04;48.85
43934;BME280;59081;42.706;23.306;2022-08-07T01:06:16;94975.31;;;23.73;49.09
43934;BME280;59081;42.706;23.306;2022-08-07T01:08:43;94999.38;;;23.92;48.66
43934;BME280;59081;42.706;23.306;2022-08-07T01:11:10;95004.75;;;23.90;48.97
43934;BME280;59081;42.706;23.306;2022-08-07T01:13:36;94983.97;;;23.75;48.49
43934;BME280;59081;42.706;23.306;2022-08-07T01:16:03;94972.06;;;23.69;48.65
43934;BME280;59081;42.706;23.306;2022-08-07T01:18:29;95001.50;;;23.86;48.37
43934;BME280;59081;42.706;23.306;2022-08-07T01:21:12;95006.59;;;23.88;48.72
43934;BME280;59081;42.706;23.306;2022-08-07T01:23:41;95022.09;;;23.94;48.27
43934;BME280;59081;42.706;23.306;2022-08-07T01:26:12;95027.16;;;23.77;48.75
43934;BME280;59081;42.706;23.306;2022-08-07T01:28:44;94961.53;;;23.45;48.76
43934;BME280;59081;42.706;23.306;2022-08-07T01:31:11;94962.59;;;23.42;48.57
43934;BME280;59081;42.706;23.306;2022-08-07T01:33:37;94909.78;;;23.10;48.45
43934;BME280;59081;42.706;23.306;2022-08-07T01:36:03;95015.16;;;23.77;49.00
43934;BME280;59081;42.706;23.306;2022-08-07T01:38:31;94944.25;;;23.11;49.38
43934;BME280;59081;42.706;23.306;2022-08-07T01:40:58;94948.88;;;23.08;49.55
43934;BME280;59081;42.706;23.306;2022-08-07T01:43:25;94951.53;;;23.01;49.61
43934;BME280;59081;42.706;23.306;2022-08-07T01:45:52;94962.41;;;23.10;49.41
43934;BME280;59081;42.706;23.306;2022-08-07T01:48:18;94899.19;;;22.68;49.46
43934;BME280;59081;42.706;23.306;2022-08-07T01:50:53;95008.56;;;23.20;49.61
43934;BME280;59081;42.706;23.306;2022-08-07T01:53:21;95024.66;;;23.19;49.78
43934;BME280;59081;42.706;23.306;2022-08-07T01:55:55;95076.63;;;23.37;50.02
43934;BME280;59081;42.706;23.306;2022-08-07T01:58:21;94998.09;;;22.49;50.37
43934;BME280;59081;42.706;23.306;2022-08-07T02:00:51;95045.75;;;22.55;51.19
43934;BME280;59081;42.706;23.306;2022-08-07T02:03:20;95045.91;;;22.33;51.85
43934;BME280;59081;42.706;23.306;2022-08-07T02:05:51;95039.13;;;22.06;53.69
43934;BME280;59081;42.706;23.306;2022-08-07T02:08:22;95004.28;;;21.73;54.08
43934;BME280;59081;42.706;23.306;2022-08-07T02:10:49;95085.53;;;22.07;55.20
43934;BME280;59081;42.706;23.306;2022-08-07T02:13:22;95070.03;;;21.78;56.68
43934;BME280;59081;42.706;23.306;2022-08-07T02:15:49;95115.59;;;22.06;57.50
43934;BME280;59081;42.706;23.306;2022-08-07T02:18:17;95116.88;;;22.05;58.80
43934;BME280;59081;42.706;23.306;2022-08-07T02:20:44;94976.91;;;21.10;61.74
43934;BME280;59081;42.706;23.306;2022-08-07T02:23:12;95062.13;;;21.76;63.18
43934;BME280;59081;42.706;23.306;2022-08-07T02:25:40;95099.03;;;22.03;64.82
43934;BME280;59081;42.706;23.306;2022-08-07T02:28:07;95080.69;;;21.91;66.04
43934;BME280;59081;42.706;23.306;2022-08-07T02:30:34;95080.94;;;21.93;66.24
43934;BME280;59081;42.706;23.306;2022-08-07T02:33:01;94949.16;;;21.01;67.43
43934;BME280;59081;42.706;23.306;2022-08-07T02:35:31;94943.28;;;20.99;68.55
43934;BME280;59081;42.706;23.306;2022-08-07T02:37:57;94931.34;;;20.82;69.42
43934;BME280;59081;42.706;23.306;2022-08-07T02:40:26;94998.28;;;20.97;70.90
43934;BME280;59081;42.706;23.306;2022-08-07T02:42:52;94988.59;;;20.98;69.80
43934;BME280;59081;42.706;23.306;2022-08-07T02:45:21;95052.75;;;21.18;69.67
43934;BME280;59081;42.706;23.306;2022-08-07T02:47:50;94932.09;;;20.32;69.28
43934;BME280;59081;42.706;23.306;2022-08-07T02:50:16;95044.34;;;21.18;69.53
43934;BME280;59081;42.706;23.306;2022-08-07T02:52:45;95062.72;;;21.36;68.80
43934;BME280;59081;42.706;23.306;2022-08-07T02:55:18;94936.97;;;20.65;67.89
43934;BME280;59081;42.706;23.306;2022-08-07T02:57:45;95033.44;;;21.20;68.10
43934;BME280;59081;42.706;23.306;2022-08-07T03:00:12;94972.59;;;20.87;67.74
43934;BME280;59081;42.706;23.306;2022-08-07T03:02:40;95020.94;;;21.32;67.38
43934;BME280;59081;42.706;23.306;2022-08-07T03:05:08;94976.91;;;21.05;68.01
43934;BME280;59081;42.706;23.306;2022-08-07T03:07:35;95035.16;;;21.51;69.33
43934;BME280;59081;42.706;23.306;2022-08-07T03:10:02;95031.56;;;21.67;68.16
43934;BME280;59081;42.706;23.306;2022-08-07T03:12:28;94947.63;;;21.11;69.47
43934;BME280;59081;42.706;23.306;2022-08-07T03:14:55;95023.16;;;21.73;69.55
43934;BME280;59081;42.706;23.306;2022-08-07T03:17:22;94947.31;;;21.43;70.18
43934;BME280;59081;42.706;23.306;2022-08-07T03:19:49;94985.44;;;21.68;70.07
43934;BME280;59081;42.706;23.306;2022-08-07T03:22:16;94975.25;;;21.65;70.12
43934;BME280;59081;42.706;23.306;2022-08-07T03:24:43;94993.34;;;21.70;70.62
43934;BME280;59081;42.706;23.306;2022-08-07T03:27:09;95044.47;;;22.09;71.05
43934;BME280;59081;42.706;23.306;2022-08-07T03:29:45;95044.97;;;22.08;71.68
43934;BME280;59081;42.706;23.306;2022-08-07T03:32:13;95036.81;;;22.10;71.63
43934;BME280;59081;42.706;23.306;2022-08-07T03:34:41;94946.25;;;21.51;71.49
43934;BME280;59081;42.706;23.306;2022-08-07T03:37:08;94967.09;;;21.67;71.01
43934;BME280;59081;42.706;23.306;2022-08-07T03:39:34;94979.56;;;21.72;70.77
43934;BME280;59081;42.706;23.306;2022-08-07T03:42:03;94951.84;;;21.57;70.66
43934;BME280;59081;42.706;23.306;2022-08-07T03:44:29;95049.75;;;22.24;71.31
43934;BME280;59081;42.706;23.306;2022-08-07T03:46:55;95007.78;;;21.96;71.30
43934;BME280;59081;42.706;23.306;2022-08-07T03:49:21;94961.00;;;21.63;70.57
43934;BME280;59081;42.706;23.306;2022-08-07T03:51:47;95000.19;;;21.80;70.99
43934;BME280;59081;42.706;23.306;2022-08-07T03:54:14;94961.53;;;21.56;71.49
43934;BME280;59081;42.706;23.306;2022-08-07T03:56:40;95045.75;;;22.03;71.61
43934;BME280;59081;42.706;23.306;2022-08-07T03:59:11;94960.53;;;21.48;70.45
43934;BME280;59081;42.706;23.306;2022-08-07T04:01:40;95007.84;;;21.68;69.69
43934;BME280;59081;42.706;23.306;2022-08-07T04:04:06;95015.00;;;21.75;69.71
43934;BME280;59081;42.706;23.306;2022-08-07T04:06:32;95014.16;;;21.85;69.50
43934;BME280;59081;42.706;23.306;2022-08-07T04:09:00;95030.44;;;22.09;69.00
43934;BME280;59081;42.706;23.306;2022-08-07T04:11:26;94927.94;;;21.45;69.31
43934;BME280;59081;42.706;23.306;2022-08-07T04:13:53;95036.00;;;22.20;69.26
43934;BME280;59081;42.706;23.306;2022-08-07T04:16:19;95067.75;;;22.45;68.92
43934;BME280;59081;42.706;23.306;2022-08-07T04:18:45;94993.78;;;21.91;69.27
43934;BME280;59081;42.706;23.306;2022-08-07T04:21:11;94986.63;;;21.89;67.98
43934;BME280;59081;42.706;23.306;2022-08-07T04:23:37;94992.75;;;21.94;68.28
43934;BME280;59081;42.706;23.306;2022-08-07T04:26:07;94989.66;;;22.03;68.12
43934;BME280;59081;42.706;23.306;2022-08-07T04:28:33;95075.34;;;22.56;68.65
43934;BME280;59081;42.706;23.306;2022-08-07T04:30:58;95021.78;;;22.02;68.64
43934;BME280;59081;42.706;23.306;2022-08-07T04:33:24;94989.75;;;21.75;69.80
43934;BME280;59081;42.706;23.306;2022-08-07T04:35:50;95023.06;;;22.01;69.10
43934;BME280;59081;42.706;23.306;2022-08-07T04:38:16;95002.97;;;21.85;68.92
43934;BME280;59081;42.706;23.306;2022-08-07T04:40:43;95011.06;;;22.06;68.22
43934;BME280;59081;42.706;23.306;2022-08-07T04:43:09;95014.91;;;22.03;68.03
43934;BME280;59081;42.706;23.306;2022-08-07T04:46:05;95026.88;;;22.09;68.78
43934;BME280;59081;42.706;23.306;2022-08-07T04:54:12;94995.69;;;22.23;67.73
43934;BME280;59081;42.706;23.306;2022-08-07T04:56:52;95009.38;;;22.38;67.35
43934;BME280;59081;42.706;23.306;2022-08-07T04:59:29;95106.44;;;23.10;66.64
43934;BME280;59081;42.706;23.306;2022-08-07T05:04:47;95087.38;;;22.98;66.26
43934;BME280;59081;42.706;23.306;2022-08-07T05:07:37;95043.06;;;22.85;66.00
43934;BME280;59081;42.706;23.306;2022-08-07T05:10:11;95092.78;;;23.25;65.62
43934;BME280;59081;42.706;23.306;2022-08-07T05:12:47;95124.59;;;23.09;66.58
43934;BME280;59081;42.706;23.306;2022-08-07T05:15:25;95045.00;;;22.54;66.05
43934;BME280;59081;42.706;23.306;2022-08-07T05:17:57;95005.41;;;22.58;65.45
43934;BME280;59081;42.706;23.306;2022-08-07T05:20:31;95098.03;;;23.40;64.95
43934;BME280;59081;42.706;23.306;2022-08-07T05:23:06;95123.53;;;23.78;64.30
43934;BME280;59081;42.706;23.306;2022-08-07T05:25:34;94993.03;;;23.13;63.71
43934;BME280;59081;42.706;23.306;2022-08-07T05:28:01;95022.06;;;23.21;63.32
43934;BME280;59081;42.706;23.306;2022-08-07T05:30:29;95118.75;;;23.97;62.67
43934;BME280;59081;42.706;23.306;2022-08-07T05:32:55;95018.56;;;23.40;61.99
43934;BME280;59081;42.706;23.306;2022-08-07T05:35:23;94995.50;;;23.47;61.34
43934;BME280;59081;42.706;23.306;2022-08-07T05:37:49;95062.03;;;23.93;59.84
43934;BME280;59081;42.706;23.306;2022-08-07T05:40:15;95040.75;;;23.98;58.96
43934;BME280;59081;42.706;23.306;2022-08-07T05:42:43;95034.69;;;24.12;57.87
43934;BME280;59081;42.706;23.306;2022-08-07T05:45:09;95140.25;;;24.86;58.19
43934;BME280;59081;42.706;23.306;2022-08-07T05:47:36;95087.78;;;24.64;57.77
43934;BME280;59081;42.706;23.306;2022-08-07T05:50:02;95142.16;;;25.16;55.98
43934;BME280;59081;42.706;23.306;2022-08-07T05:52:28;95093.19;;;24.81;56.98
43934;BME280;59081;42.706;23.306;2022-08-07T05:54:54;95066.25;;;24.67;56.34
43934;BME280;59081;42.706;23.306;2022-08-07T05:57:19;95142.09;;;25.21;56.54
43934;BME280;59081;42.706;23.306;2022-08-07T05:59:45;95090.25;;;24.74;56.52
43934;BME280;59081;42.706;23.306;2022-08-07T06:02:15;95113.63;;;25.06;55.16
43934;BME280;59081;42.706;23.306;2022-08-07T06:04:47;95114.78;;;25.29;54.41
43934;BME280;59081;42.706;23.306;2022-08-07T06:07:15;95159.03;;;25.72;54.28
43934;BME280;59081;42.706;23.306;2022-08-07T06:09:42;95164.44;;;25.70;53.82
43934;BME280;59081;42.706;23.306;2022-08-07T06:12:09;95145.63;;;25.59;52.51
43934;BME280;59081;42.706;23.306;2022-08-07T06:14:35;95103.63;;;25.56;52.53
43934;BME280;59081;42.706;23.306;2022-08-07T06:17:02;95149.66;;;25.96;52.15
43934;BME280;59081;42.706;23.306;2022-08-07T06:19:28;95176.59;;;26.23;51.47
43934;BME280;59081;42.706;23.306;2022-08-07T06:21:55;95116.56;;;25.64;52.18
43934;BME280;59081;42.706;23.306;2022-08-07T06:24:20;95033.03;;;25.29;51.78
43934;BME280;59081;42.706;23.306;2022-08-07T06:26:46;95176.06;;;26.25;51.78
43934;BME280;59081;42.706;23.306;2022-08-07T06:29:12;95178.81;;;26.30;51.60
43934;BME280;59081;42.706;23.306;2022-08-07T06:31:37;95109.69;;;25.92;50.42
43934;BME280;59081;42.706;23.306;2022-08-07T06:34:03;95159.13;;;26.25;50.72
43934;BME280;59081;42.706;23.306;2022-08-07T06:36:28;95111.31;;;25.87;51.02
43934;BME280;59081;42.706;23.306;2022-08-07T06:38:54;95147.41;;;26.34;51.26
43934;BME280;59081;42.706;23.306;2022-08-07T06:41:30;95105.47;;;26.25;51.06
43934;BME280;59081;42.706;23.306;2022-08-07T06:43:57;95124.28;;;26.35;50.31
43934;BME280;59081;42.706;23.306;2022-08-07T06:46:24;95104.94;;;26.26;49.79
43934;BME280;59081;42.706;23.306;2022-08-07T06:48:50;95112.66;;;26.26;48.77
43934;BME280;59081;42.706;23.306;2022-08-07T06:51:20;95083.44;;;26.10;49.87
43934;BME280;59081;42.706;23.306;2022-08-07T06:53:46;95170.13;;;26.68;49.35
43934;BME280;59081;42.706;23.306;2022-08-07T06:56:13;95087.88;;;25.92;48.55
43934;BME280;59081;42.706;23.306;2022-08-07T06:58:39;95121.13;;;26.39;48.98
43934;BME280;59081;42.706;23.306;2022-08-07T07:01:08;95107.53;;;26.51;48.32
43934;BME280;59081;42.706;23.306;2022-08-07T07:03:37;95111.78;;;26.57;47.52
43934;BME280;59081;42.706;23.306;2022-08-07T07:06:05;95155.78;;;26.53;48.14
43934;BME280;59081;42.706;23.306;2022-08-07T07:08:30;95149.81;;;26.43;49.09
43934;BME280;59081;42.706;23.306;2022-08-07T07:10:56;95061.81;;;26.26;48.75
43934;BME280;59081;42.706;23.306;2022-08-07T07:13:35;95110.78;;;26.68;48.18
43934;BME280;59081;42.706;23.306;2022-08-07T07:16:06;95081.38;;;26.50;47.31
43934;BME280;59081;42.706;23.306;2022-08-07T07:18:43;95083.13;;;26.27;48.19
43934;BME280;59081;42.706;23.306;2022-08-07T07:21:19;95104.63;;;26.56;47.96
43934;BME280;59081;42.706;23.306;2022-08-07T07:23:45;95087.19;;;26.79;47.56
43934;BME280;59081;42.706;23.306;2022-08-07T07:26:16;95098.44;;;27.05;46.67
43934;BME280;59081;42.706;23.306;2022-08-07T07:31:16;95069.06;;;26.74;44.79
43934;BME280;59081;42.706;23.306;2022-08-07T07:33:43;95117.69;;;26.93;45.37
43934;BME280;59081;42.706;23.306;2022-08-07T07:36:10;95145.69;;;27.31;44.75
43934;BME280;59081;42.706;23.306;2022-08-07T07:38:37;95157.59;;;27.37;43.94
43934;BME280;59081;42.706;23.306;2022-08-07T07:41:07;95125.66;;;27.29;44.46
43934;BME280;59081;42.706;23.306;2022-08-07T07:43:37;95163.69;;;27.75;43.53
43934;BME280;59081;42.706;23.306;2022-08-07T07:46:05;95120.41;;;27.67;42.94
43934;BME280;59081;42.706;23.306;2022-08-07T07:48:32;95171.09;;;28.20;42.72
43934;BME280;59081;42.706;23.306;2022-08-07T07:50:59;95130.16;;;28.07;41.54
43934;BME280;59081;42.706;23.306;2022-08-07T07:53:26;95164.66;;;28.19;41.20
43934;BME280;59081;42.706;23.306;2022-08-07T07:55:55;95151.19;;;27.91;41.64
43934;BME280;59081;42.706;23.306;2022-08-07T07:58:24;95172.59;;;28.00;42.20
43934;BME280;59081;42.706;23.306;2022-08-07T08:00:50;95159.78;;;28.06;41.82
43934;BME280;59081;42.706;23.306;2022-08-07T08:03:20;95123.38;;;27.82;41.93
43934;BME280;59081;42.706;23.306;2022-08-07T08:05:46;95169.22;;;28.22;41.34
43934;BME280;59081;42.706;23.306;2022-08-07T08:08:12;95175.63;;;28.23;41.41
43934;BME280;59081;42.706;23.306;2022-08-07T08:10:39;95151.72;;;28.31;41.58
43934;BME280;59081;42.706;23.306;2022-08-07T08:13:06;95195.69;;;28.53;40.59
43934;BME280;59081;42.706;23.306;2022-08-07T08:15:35;95174.63;;;28.41;40.50
43934;BME280;59081;42.706;23.306;2022-08-07T08:18:05;95125.34;;;28.16;40.10
43934;BME280;59081;42.706;23.306;2022-08-07T08:20:33;95096.25;;;28.36;40.29
43934;BME280;59081;42.706;23.306;2022-08-07T08:23:00;95101.78;;;28.49;40.43
43934;BME280;59081;42.706;23.306;2022-08-07T08:25:46;95185.72;;;28.88;39.85
43934;BME280;59081;42.706;23.306;2022-08-07T08:28:35;95152.91;;;28.72;40.26
43934;BME280;59081;42.706;23.306;2022-08-07T08:31:02;95135.91;;;28.72;39.83
43934;BME280;59081;42.706;23.306;2022-08-07T08:33:32;95102.59;;;28.57;39.61
43934;BME280;59081;42.706;23.306;2022-08-07T08:36:00;95184.91;;;29.16;39.91
43934;BME280;59081;42.706;23.306;2022-08-07T08:38:41;95182.19;;;29.39;39.10
43934;BME280;59081;42.706;23.306;2022-08-07T08:41:30;95184.00;;;29.29;39.48
43934;BME280;59081;42.706;23.306;2022-08-07T08:44:03;95145.63;;;29.35;38.18
43934;BME280;59081;42.706;23.306;2022-08-07T08:46:42;95171.06;;;29.64;38.30
43934;BME280;59081;42.706;23.306;2022-08-07T08:49:32;95122.47;;;29.01;38.54
43934;BME280;59081;42.706;23.306;2022-08-07T08:52:55;95187.94;;;29.69;38.25
43934;BME280;59081;42.706;23.306;2022-08-07T08:55:29;95137.22;;;29.58;38.11
43934;BME280;59081;42.706;23.306;2022-08-07T08:58:04;95110.44;;;29.31;38.22
43934;BME280;59081;42.706;23.306;2022-08-07T09:00:40;95107.31;;;29.57;37.61
43934;BME280;59081;42.706;23.306;2022-08-07T09:05:52;95101.84;;;29.90;37.83
43934;BME280;59081;42.706;23.306;2022-08-07T09:14:57;95154.84;;;30.48;35.94
43934;BME280;59081;42.706;23.306;2022-08-07T09:17:42;95178.00;;;30.29;35.87
43934;BME280;59081;42.706;23.306;2022-08-07T09:20:34;95178.69;;;29.84;37.04
43934;BME280;59081;42.706;23.306;2022-08-07T09:23:01;95174.56;;;30.38;36.78
43934;BME280;59081;42.706;23.306;2022-08-07T09:28:10;95147.31;;;30.20;36.27
43934;BME280;59081;42.706;23.306;2022-08-07T09:36:02;95083.09;;;29.64;36.80
43934;BME280;59081;42.706;23.306;2022-08-07T09:41:27;95085.94;;;30.25;34.61
43934;BME280;59081;42.706;23.306;2022-08-07T09:52:05;95139.75;;;31.16;34.69
43934;BME280;59081;42.706;23.306;2022-08-07T09:55:08;95139.16;;;30.39;35.74
43934;BME280;59081;42.706;23.306;2022-08-07T10:01:00;95128.72;;;30.57;33.29
43934;BME280;59081;42.706;23.306;2022-08-07T10:03:45;95090.06;;;30.62;33.39
43934;BME280;59081;42.706;23.306;2022-08-07T10:09:33;95140.47;;;31.24;32.43
43934;BME280;59081;42.706;23.306;2022-08-07T10:12:16;95066.53;;;30.54;32.79
43934;BME280;59081;42.706;23.306;2022-08-07T10:15:22;95135.38;;;31.07;33.58
43934;BME280;59081;42.706;23.306;2022-08-07T10:18:04;95130.84;;;31.04;32.48
43934;BME280;59081;42.706;23.306;2022-08-07T10:29:10;95113.50;;;30.77;33.86
43934;BME280;59081;42.706;23.306;2022-08-07T10:34:26;95041.38;;;30.42;33.95
43934;BME280;59081;42.706;23.306;2022-08-07T10:45:35;95080.09;;;31.66;32.80
43934;BME280;59081;42.706;23.306;2022-08-07T10:53:37;95121.53;;;31.52;33.66
43934;BME280;59081;42.706;23.306;2022-08-07T10:59:08;95135.56;;;31.17;34.03
43934;BME280;59081;42.706;23.306;2022-08-07T11:01:44;95118.94;;;30.91;33.82
43934;BME280;59081;42.706;23.306;2022-08-07T11:04:21;95129.44;;;30.65;33.93
43934;BME280;59081;42.706;23.306;2022-08-07T11:07:00;95130.81;;;30.41;34.57
43934;BME280;59081;42.706;23.306;2022-08-07T11:09:33;95088.03;;;30.17;34.80
43934;BME280;59081;42.706;23.306;2022-08-07T11:12:03;95138.16;;;30.67;34.66
43934;BME280;59081;42.706;23.306;2022-08-07T11:14:34;95122.09;;;31.10;34.14
43934;BME280;59081;42.706;23.306;2022-08-07T11:19:39;95121.13;;;31.23;34.06
43934;BME280;59081;42.706;23.306;2022-08-07T11:22:24;95110.13;;;31.19;33.93
43934;BME280;59081;42.706;23.306;2022-08-07T11:25:05;95100.75;;;30.86;33.69
43934;BME280;59081;42.706;23.306;2022-08-07T11:30:12;95073.09;;;31.27;33.51
43934;BME280;59081;42.706;23.306;2022-08-07T11:32:43;95066.44;;;30.92;33.22
43934;BME280;59081;42.706;23.306;2022-08-07T11:35:17;95119.41;;;30.49;36.26
43934;BME280;59081;42.706;23.306;2022-08-07T11:38:09;95129.81;;;30.69;36.37
43934;BME280;59081;42.706;23.306;2022-08-07T11:41:03;95134.50;;;30.90;36.07
43934;BME280;59081;42.706;23.306;2022-08-07T11:43:35;95141.19;;;30.69;36.54
43934;BME280;59081;42.706;23.306;2022-08-07T11:49:06;95129.91;;;30.08;38.05
43934;BME280;59081;42.706;23.306;2022-08-07T11:51:45;95137.84;;;30.25;37.54
43934;BME280;59081;42.706;23.306;2022-08-07T11:57:15;95086.88;;;29.66;38.95
43934;BME280;59081;42.706;23.306;2022-08-07T12:00:15;95107.53;;;29.90;38.88
43934;BME280;59081;42.706;23.306;2022-08-07T12:08:10;95077.41;;;30.17;37.23
43934;BME280;59081;42.706;23.306;2022-08-07T12:10:44;95063.78;;;30.16;37.36
43934;BME280;59081;42.706;23.306;2022-08-07T12:15:52;95092.38;;;29.79;39.33
43934;BME280;59081;42.706;23.306;2022-08-07T12:18:24;95038.81;;;29.46;39.11
43934;BME280;59081;42.706;23.306;2022-08-07T12:21:13;95119.28;;;30.01;37.57
43934;BME280;59081;42.706;23.306;2022-08-07T12:23:51;95056.84;;;28.97;38.79
43934;BME280;59081;42.706;23.306;2022-08-07T12:26:27;95106.19;;;29.60;38.24
43934;BME280;59081;42.706;23.306;2022-08-07T12:31:38;95065.81;;;28.72;39.81
43934;BME280;59081;42.706;23.306;2022-08-07T12:34:05;95065.53;;;28.91;39.85
43934;BME280;59081;42.706;23.306;2022-08-07T12:36:32;95075.63;;;29.23;39.61
43934;BME280;59081;42.706;23.306;2022-08-07T12:39:01;95073.81;;;29.56;39.59
43934;BME280;59081;42.706;23.306;2022-08-07T12:41:28;95036.75;;;29.69;38.85
43934;BME280;59081;42.706;23.306;2022-08-07T12:43:56;95073.94;;;30.49;38.05
43934;BME280;59081;42.706;23.306;2022-08-07T12:46:48;95111.13;;;30.28;37.03
43934;BME280;59081;42.706;23.306;2022-08-07T12:52:14;95070.59;;;30.20;36.34
43934;BME280;59081;42.706;23.306;2022-08-07T12:55:01;95099.69;;;30.51;36.15
43934;BME280;59081;42.706;23.306;2022-08-07T12:57:32;95006.81;;;29.91;35.58
43934;BME280;59081;42.706;23.306;2022-08-07T13:00:01;95028.78;;;30.05;36.11
43934;BME280;59081;42.706;23.306;2022-08-07T13:08:23;95096.50;;;30.62;35.52
43934;BME280;59081;42.706;23.306;2022-08-07T13:14:18;95086.34;;;31.89;32.79
43934;BME280;59081;42.706;23.306;2022-08-07T13:16:58;95069.53;;;32.43;31.71
43934;BME280;59081;42.706;23.306;2022-08-07T13:19:38;95084.75;;;32.80;30.83
43934;BME280;59081;42.706;23.306;2022-08-07T13:22:14;95059.56;;;33.03;30.62
43934;BME280;59081;42.706;23.306;2022-08-07T13:27:49;95081.69;;;33.12;29.94
43934;BME280;59081;42.706;23.306;2022-08-07T13:30:16;95068.38;;;32.63;30.44
43934;BME280;59081;42.706;23.306;2022-08-07T13:35:30;95087.81;;;32.40;30.93
43934;BME280;59081;42.706;23.306;2022-08-07T13:40:34;95081.97;;;32.13;31.74
43934;BME280;59081;42.706;23.306;2022-08-07T13:43:06;94989.34;;;31.87;31.65
43934;BME280;59081;42.706;23.306;2022-08-07T13:45:34;95021.41;;;31.88;31.77
43934;BME280;59081;42.706;23.306;2022-08-07T13:48:04;95069.72;;;32.79;31.16
43934;BME280;59081;42.706;23.306;2022-08-07T13:50:31;95001.19;;;32.70;29.98
43934;BME280;59081;42.706;23.306;2022-08-07T13:52:58;95053.88;;;32.86;29.94
43934;BME280;59081;42.706;23.306;2022-08-07T13:55:24;95048.06;;;33.38;29.55
43934;BME280;59081;42.706;23.306;2022-08-07T13:58:08;95033.97;;;32.96;28.99
43934;BME280;59081;42.706;23.306;2022-08-07T14:00:53;95084.13;;;32.47;29.74
43934;BME280;59081;42.706;23.306;2022-08-07T14:03:22;95055.59;;;31.63;31.39
43934;BME280;59081;42.706;23.306;2022-08-07T14:05:53;95026.16;;;31.03;32.04
43934;BME280;59081;42.706;23.306;2022-08-07T14:08:21;95063.69;;;31.17;32.71
43934;BME280;59081;42.706;23.306;2022-08-07T14:10:49;95067.13;;;30.60;33.63
43934;BME280;59081;42.706;23.306;2022-08-07T14:13:20;95040.44;;;30.40;33.81
43934;BME280;59081;42.706;23.306;2022-08-07T14:15:55;95032.47;;;30.94;32.81
43934;BME280;59081;42.706;23.306;2022-08-07T14:18:29;95043.84;;;30.94;32.94
43934;BME280;59081;42.706;23.306;2022-08-07T14:21:10;95086.47;;;31.41;33.55
43934;BME280;59081;42.706;23.306;2022-08-07T14:23:47;95088.41;;;30.99;34.89
43934;BME280;59081;42.706;23.306;2022-08-07T14:26:18;95058.59;;;30.52;35.61
43934;BME280;59081;42.706;23.306;2022-08-07T14:28:45;95089.13;;;30.44;36.33
43934;BME280;59081;42.706;23.306;2022-08-07T14:31:12;95088.00;;;30.47;36.37
43934;BME280;59081;42.706;23.306;2022-08-07T14:33:39;95061.50;;;30.29;36.80
43934;BME280;59081;42.706;23.306;2022-08-07T14:36:06;95060.75;;;30.21;37.17
43934;BME280;59081;42.706;23.306;2022-08-07T14:38:32;95070.78;;;30.15;37.31
43934;BME280;59081;42.706;23.306;2022-08-07T14:41:01;95049.97;;;29.97;37.69
43934;BME280;59081;42.706;23.306;2022-08-07T14:43:28;95066.66;;;30.00;37.98
43934;BME280;59081;42.706;23.306;2022-08-07T14:45:57;95074.22;;;29.90;38.50
43934;BME280;59081;42.706;23.306;2022-08-07T14:48:32;95067.78;;;29.90;37.56
43934;BME280;59081;42.706;23.306;2022-08-07T14:51:04;95076.47;;;29.84;37.98
43934;BME280;59081;42.706;23.306;2022-08-07T14:53:33;95076.28;;;29.90;38.75
43934;BME280;59081;42.706;23.306;2022-08-07T14:56:06;95058.50;;;29.82;38.07
43934;BME280;59081;42.706;23.306;2022-08-07T14:58:35;95024.81;;;29.48;38.00
43934;BME280;59081;42.706;23.306;2022-08-07T15:01:02;95021.22;;;29.39;38.09
43934;BME280;59081;42.706;23.306;2022-08-07T15:03:29;95031.63;;;29.60;37.94